sensor_id;sensor_type;location;lat;lon;timestamp;temperature;humidity
42907;DHT22;28552;51.146;6.576;2022-09-06T00:01:23;20.00;84.90
42907;DHT22;28552;51.146;6.576;2022-09-06T00:04:23;20.10;85.30
42907;DHT22;28552;51.146;6.576;2022-09-06T00:07:24;20.20;85.60
42907;DHT22;28552;51.146;6.576;2022-09-06T00:10:25;20.20;86.10
42907;DHT22;28552;51.146;6.576;2022-09-06T00:13:27;20.10;90.10
42907;DHT22;28552;51.146;6.576;2022-09-06T00:16:27;19.80;92.60
42907;DHT22;28552;51.146;6.576;2022-09-06T00:19:28;19.40;94.90
42907;DHT22;28552;51.146;6.576;2022-09-06T00:22:28;19.10;97.00
42907;DHT22;28552;51.146;6.576;2022-09-06T00:25:30;18.90;98.80
42907;DHT22;28552;51.146;6.576;2022-09-06T00:28:30;18.70;99.90
42907;DHT22;28552;51.146;6.576;2022-09-06T00:31:31;18.60;99.90
42907;DHT22;28552;51.146;6.576;2022-09-06T00:34:32;18.50;99.90
42907;DHT22;28552;51.146;6.576;2022-09-06T00:37:32;18.40;99.90
42907;DHT22;28552;51.146;6.576;2022-09-06T00:40:33;18.40;99.90
42907;DHT22;28552;51.146;6.576;2022-09-06T00:43:35;18.40;99.90
42907;DHT22;28552;51.146;6.576;2022-09-06T00:46:37;18.40;99.90
42907;DHT22;28552;51.146;6.576;2022-09-06T00:49:46;18.40;99.90
42907;DHT22;28552;51.146;6.576;2022-09-06T00:52:49;18.50;99.90
42907;DHT22;28552;51.146;6.576;2022-09-06T00:55:51;18.60;99.90
42907;DHT22;28552;51.146;6.576;2022-09-06T00:58:52;18.60;99.90
42907;DHT22;28552;51.146;6.576;2022-09-06T01:01:54;18.60;99.90
42907;DHT22;28552;51.146;6.576;2022-09-06T01:04:54;18.70;99.90
42907;DHT22;28552;51.146;6.576;2022-09-06T01:14:50;18.50;99.90
42907;DHT22;28552;51.146;6.576;2022-09-06T01:28:01;18.20;99.90
42907;DHT22;28552;51.146;6.576;2022-09-06T01:31:17;18.00;99.90
42907;DHT22;28552;51.146;6.576;2022-09-06T01:34:32;18.00;99.90
42907;DHT22;28552;51.146;6.576;2022-09-06T01:37:34;18.00;99.90
42907;DHT22;28552;51.146;6.576;2022-09-06T01:40:35;18.10;99.90
42907;DHT22;28552;51.146;6.576;2022-09-06T01:43:38;18.10;99.90
42907;DHT22;28552;51.146;6.576;2022-09-06T01:46:49;18.10;99.90
42907;DHT22;28552;51.146;6.576;2022-09-06T01:53:38;18.10;99.90
42907;DHT22;28552;51.146;6.576;2022-09-06T02:00:13;18.30;99.90
42907;DHT22;28552;51.146;6.576;2022-09-06T02:03:24;18.30;99.90
42907;DHT22;28552;51.146;6.576;2022-09-06T02:06:30;18.30;99.90
42907;DHT22;28552;51.146;6.576;2022-09-06T02:09:36;18.40;99.90
42907;DHT22;28552;51.146;6.576;2022-09-06T02:12:42;18.50;99.90
42907;DHT22;28552;51.146;6.576;2022-09-06T02:15:50;18.60;99.90
42907;DHT22;28552;51.146;6.576;2022-09-06T02:18:59;18.60;99.90
42907;DHT22;28552;51.146;6.576;2022-09-06T02:22:06;18.60;99.90
42907;DHT22;28552;51.146;6.576;2022-09-06T02:25:09;18.60;99.90
42907;DHT22;28552;51.146;6.576;2022-09-06T02:28:13;18.60;99.90
42907;DHT22;28552;51.146;6.576;2022-09-06T02:31:20;18.50;99.90
42907;DHT22;28552;51.146;6.576;2022-09-06T02:34:22;18.50;99.90
42907;DHT22;28552;51.146;6.576;2022-09-06T02:37:24;18.60;99.90
42907;DHT22;28552;51.146;6.576;2022-09-06T02:40:25;18.60;99.90
42907;DHT22;28552;51.146;6.576;2022-09-06T02:43:26;18.60;99.90
42907;DHT22;28552;51.146;6.576;2022-09-06T02:46:27;18.60;99.90
42907;DHT22;28552;51.146;6.576;2022-09-06T02:49:28;18.60;99.90
42907;DHT22;28552;51.146;6.576;2022-09-06T02:52:29;18.60;99.90
42907;DHT22;28552;51.146;6.576;2022-09-06T02:55:30;18.60;99.90
42907;DHT22;28552;51.146;6.576;2022-09-06T02:58:31;18.60;99.90
42907;DHT22;28552;51.146;6.576;2022-09-06T03:01:32;18.60;99.90
42907;DHT22;28552;51.146;6.576;2022-09-06T03:04:33;18.70;99.90
42907;DHT22;28552;51.146;6.576;2022-09-06T03:07:33;18.70;99.90
42907;DHT22;28552;51.146;6.576;2022-09-06T03:10:34;18.60;99.90
42907;DHT22;28552;51.146;6.576;2022-09-06T03:13:34;18.60;99.90
42907;DHT22;28552;51.146;6.576;2022-09-06T03:16:35;18.40;99.90
42907;DHT22;28552;51.146;6.576;2022-09-06T03:19:37;18.40;99.90
42907;DHT22;28552;51.146;6.576;2022-09-06T03:22:38;18.40;99.90
42907;DHT22;28552;51.146;6.576;2022-09-06T03:25:39;18.40;99.90
42907;DHT22;28552;51.146;6.576;2022-09-06T03:28:40;18.40;99.90
42907;DHT22;28552;51.146;6.576;2022-09-06T03:31:40;18.40;99.90
42907;DHT22;28552;51.146;6.576;2022-09-06T03:34:41;18.40;99.90
42907;DHT22;28552;51.146;6.576;2022-09-06T03:37:42;18.40;99.90
42907;DHT22;28552;51.146;6.576;2022-09-06T03:40:44;18.40;99.90
42907;DHT22;28552;51.146;6.576;2022-09-06T03:43:45;18.40;99.90
42907;DHT22;28552;51.146;6.576;2022-09-06T03:46:45;18.40;99.90
42907;DHT22;28552;51.146;6.576;2022-09-06T03:49:46;18.40;99.90
42907;DHT22;28552;51.146;6.576;2022-09-06T03:52:47;18.40;99.90
42907;DHT22;28552;51.146;6.576;2022-09-06T03:55:49;18.40;99.90
42907;DHT22;28552;51.146;6.576;2022-09-06T03:58:50;18.50;99.90
42907;DHT22;28552;51.146;6.576;2022-09-06T04:01:51;18.40;99.90
42907;DHT22;28552;51.146;6.576;2022-09-06T04:04:51;18.30;99.90
42907;DHT22;28552;51.146;6.576;2022-09-06T04:07:54;18.30;99.90
42907;DHT22;28552;51.146;6.576;2022-09-06T04:10:56;18.20;99.90
42907;DHT22;28552;51.146;6.576;2022-09-06T04:13:57;18.20;99.90
42907;DHT22;28552;51.146;6.576;2022-09-06T04:16:57;18.20;99.90
42907;DHT22;28552;51.146;6.576;2022-09-06T04:19:58;18.10;99.90
42907;DHT22;28552;51.146;6.576;2022-09-06T04:22:58;18.10;99.90
42907;DHT22;28552;51.146;6.576;2022-09-06T04:25:59;18.00;99.90
42907;DHT22;28552;51.146;6.576;2022-09-06T04:28:59;18.00;99.90
42907;DHT22;28552;51.146;6.576;2022-09-06T04:32:00;18.00;99.90
42907;DHT22;28552;51.146;6.576;2022-09-06T04:35:01;18.10;99.90
42907;DHT22;28552;51.146;6.576;2022-09-06T04:38:02;18.00;99.90
42907;DHT22;28552;51.146;6.576;2022-09-06T04:41:04;18.10;99.90
42907;DHT22;28552;51.146;6.576;2022-09-06T04:44:05;18.10;99.90
42907;DHT22;28552;51.146;6.576;2022-09-06T04:47:11;18.10;99.90
42907;DHT22;28552;51.146;6.576;2022-09-06T04:50:14;18.00;99.90
42907;DHT22;28552;51.146;6.576;2022-09-06T04:53:14;18.00;99.90
42907;DHT22;28552;51.146;6.576;2022-09-06T04:56:18;17.90;99.90
42907;DHT22;28552;51.146;6.576;2022-09-06T04:59:19;17.90;99.90
42907;DHT22;28552;51.146;6.576;2022-09-06T05:02:19;17.80;99.90
42907;DHT22;28552;51.146;6.576;2022-09-06T05:05:20;17.70;99.90
42907;DHT22;28552;51.146;6.576;2022-09-06T05:08:21;17.70;99.90
42907;DHT22;28552;51.146;6.576;2022-09-06T05:11:22;17.70;99.90
42907;DHT22;28552;51.146;6.576;2022-09-06T05:14:23;17.70;99.90
42907;DHT22;28552;51.146;6.576;2022-09-06T05:17:24;17.80;99.90
42907;DHT22;28552;51.146;6.576;2022-09-06T05:20:24;17.70;99.90
42907;DHT22;28552;51.146;6.576;2022-09-06T05:23:25;17.70;99.90
42907;DHT22;28552;51.146;6.576;2022-09-06T05:26:26;17.70;99.90
42907;DHT22;28552;51.146;6.576;2022-09-06T05:29:27;17.60;99.90
42907;DHT22;28552;51.146;6.576;2022-09-06T05:32:27;17.70;99.90
42907;DHT22;28552;51.146;6.576;2022-09-06T05:35:28;17.70;99.90
42907;DHT22;28552;51.146;6.576;2022-09-06T05:38:28;17.70;99.90
42907;DHT22;28552;51.146;6.576;2022-09-06T05:41:29;17.60;99.90
42907;DHT22;28552;51.146;6.576;2022-09-06T05:44:29;17.60;99.90
42907;DHT22;28552;51.146;6.576;2022-09-06T05:47:30;17.60;99.90
42907;DHT22;28552;51.146;6.576;2022-09-06T05:50:34;17.60;99.90
42907;DHT22;28552;51.146;6.576;2022-09-06T05:53:37;17.60;99.90
42907;DHT22;28552;51.146;6.576;2022-09-06T05:56:37;17.50;99.90
42907;DHT22;28552;51.146;6.576;2022-09-06T05:59:38;17.50;99.90
42907;DHT22;28552;51.146;6.576;2022-09-06T06:02:38;17.60;99.90
42907;DHT22;28552;51.146;6.576;2022-09-06T06:05:39;17.50;99.90
42907;DHT22;28552;51.146;6.576;2022-09-06T06:08:40;17.60;99.90
42907;DHT22;28552;51.146;6.576;2022-09-06T06:11:40;17.60;99.90
42907;DHT22;28552;51.146;6.576;2022-09-06T06:14:41;17.70;99.90
42907;DHT22;28552;51.146;6.576;2022-09-06T06:17:42;17.70;99.90
42907;DHT22;28552;51.146;6.576;2022-09-06T06:20:42;17.80;99.90
42907;DHT22;28552;51.146;6.576;2022-09-06T06:23:44;17.80;99.90
42907;DHT22;28552;51.146;6.576;2022-09-06T06:26:45;17.90;99.90
42907;DHT22;28552;51.146;6.576;2022-09-06T06:29:46;18.00;99.90
42907;DHT22;28552;51.146;6.576;2022-09-06T06:32:46;18.10;99.90
42907;DHT22;28552;51.146;6.576;2022-09-06T06:36:24;18.30;99.90
42907;DHT22;28552;51.146;6.576;2022-09-06T06:39:22;18.40;99.90
42907;DHT22;28552;51.146;6.576;2022-09-06T06:42:23;18.50;99.90
42907;DHT22;28552;51.146;6.576;2022-09-06T06:45:24;18.70;99.90
42907;DHT22;28552;51.146;6.576;2022-09-06T06:48:25;18.90;99.90
42907;DHT22;28552;51.146;6.576;2022-09-06T06:51:28;19.10;99.90
42907;DHT22;28552;51.146;6.576;2022-09-06T06:54:29;19.20;99.90
42907;DHT22;28552;51.146;6.576;2022-09-06T06:57:29;19.40;99.90
42907;DHT22;28552;51.146;6.576;2022-09-06T07:00:30;19.60;99.90
42907;DHT22;28552;51.146;6.576;2022-09-06T07:03:30;19.80;99.90
42907;DHT22;28552;51.146;6.576;2022-09-06T07:06:45;19.90;99.90
42907;DHT22;28552;51.146;6.576;2022-09-06T07:09:46;20.00;99.90
42907;DHT22;28552;51.146;6.576;2022-09-06T07:12:46;20.20;99.90
42907;DHT22;28552;51.146;6.576;2022-09-06T07:15:47;20.30;99.90
42907;DHT22;28552;51.146;6.576;2022-09-06T07:18:52;20.40;99.90
42907;DHT22;28552;51.146;6.576;2022-09-06T07:21:53;20.70;99.90
42907;DHT22;28552;51.146;6.576;2022-09-06T07:24:56;20.90;99.90
42907;DHT22;28552;51.146;6.576;2022-09-06T07:27:59;21.20;99.90
42907;DHT22;28552;51.146;6.576;2022-09-06T07:31:01;21.30;99.90
42907;DHT22;28552;51.146;6.576;2022-09-06T07:34:01;21.40;99.90
42907;DHT22;28552;51.146;6.576;2022-09-06T07:37:04;21.50;99.90
42907;DHT22;28552;51.146;6.576;2022-09-06T07:40:05;21.60;99.90
42907;DHT22;28552;51.146;6.576;2022-09-06T07:43:06;21.80;99.90
42907;DHT22;28552;51.146;6.576;2022-09-06T07:46:10;22.00;99.90
42907;DHT22;28552;51.146;6.576;2022-09-06T07:49:11;22.20;99.90
42907;DHT22;28552;51.146;6.576;2022-09-06T07:52:12;22.40;99.90
42907;DHT22;28552;51.146;6.576;2022-09-06T07:55:12;22.60;99.90
42907;DHT22;28552;51.146;6.576;2022-09-06T07:58:13;22.80;99.90
42907;DHT22;28552;51.146;6.576;2022-09-06T08:01:30;23.00;99.90
42907;DHT22;28552;51.146;6.576;2022-09-06T08:04:31;23.20;99.90
42907;DHT22;28552;51.146;6.576;2022-09-06T08:07:31;23.40;99.90
42907;DHT22;28552;51.146;6.576;2022-09-06T08:10:32;23.60;99.90
42907;DHT22;28552;51.146;6.576;2022-09-06T08:13:34;23.80;99.90
42907;DHT22;28552;51.146;6.576;2022-09-06T08:16:36;24.00;99.90
42907;DHT22;28552;51.146;6.576;2022-09-06T08:19:37;24.10;99.90
42907;DHT22;28552;51.146;6.576;2022-09-06T08:22:37;24.30;99.90
42907;DHT22;28552;51.146;6.576;2022-09-06T08:25:38;24.40;99.90
42907;DHT22;28552;51.146;6.576;2022-09-06T08:28:38;24.50;99.90
42907;DHT22;28552;51.146;6.576;2022-09-06T08:31:41;24.60;99.90
42907;DHT22;28552;51.146;6.576;2022-09-06T08:34:42;24.60;99.90
42907;DHT22;28552;51.146;6.576;2022-09-06T08:37:43;24.60;99.90
42907;DHT22;28552;51.146;6.576;2022-09-06T08:40:43;24.50;99.90
42907;DHT22;28552;51.146;6.576;2022-09-06T08:43:50;24.30;99.90
42907;DHT22;28552;51.146;6.576;2022-09-06T08:46:56;24.10;99.90
42907;DHT22;28552;51.146;6.576;2022-09-06T08:50:02;23.90;99.90
42907;DHT22;28552;51.146;6.576;2022-09-06T08:53:13;23.70;99.90
42907;DHT22;28552;51.146;6.576;2022-09-06T08:56:22;23.70;99.90
42907;DHT22;28552;51.146;6.576;2022-09-06T08:59:23;23.60;99.90
42907;DHT22;28552;51.146;6.576;2022-09-06T09:02:23;23.60;99.90
42907;DHT22;28552;51.146;6.576;2022-09-06T09:05:28;23.60;99.90
42907;DHT22;28552;51.146;6.576;2022-09-06T09:08:58;23.60;99.90
42907;DHT22;28552;51.146;6.576;2022-09-06T09:12:00;23.70;99.90
42907;DHT22;28552;51.146;6.576;2022-09-06T09:15:06;23.70;99.90
42907;DHT22;28552;51.146;6.576;2022-09-06T09:18:09;23.70;99.90
42907;DHT22;28552;51.146;6.576;2022-09-06T09:21:20;23.70;99.90
42907;DHT22;28552;51.146;6.576;2022-09-06T09:24:22;23.80;99.90
42907;DHT22;28552;51.146;6.576;2022-09-06T09:27:26;23.80;99.90
42907;DHT22;28552;51.146;6.576;2022-09-06T09:30:51;23.80;99.90
42907;DHT22;28552;51.146;6.576;2022-09-06T09:33:52;23.90;99.90
42907;DHT22;28552;51.146;6.576;2022-09-06T09:43:29;24.10;99.90
42907;DHT22;28552;51.146;6.576;2022-09-06T09:46:35;24.10;99.90
42907;DHT22;28552;51.146;6.576;2022-09-06T09:49:36;24.20;99.90
42907;DHT22;28552;51.146;6.576;2022-09-06T09:52:42;24.30;99.90
42907;DHT22;28552;51.146;6.576;2022-09-06T09:55:43;24.30;99.90
42907;DHT22;28552;51.146;6.576;2022-09-06T09:58:45;24.40;99.90
42907;DHT22;28552;51.146;6.576;2022-09-06T10:01:45;24.50;99.90
42907;DHT22;28552;51.146;6.576;2022-09-06T10:04:49;24.50;99.90
42907;DHT22;28552;51.146;6.576;2022-09-06T10:07:53;24.60;99.70
42907;DHT22;28552;51.146;6.576;2022-09-06T10:10:54;24.70;99.30
42907;DHT22;28552;51.146;6.576;2022-09-06T10:14:10;24.80;98.90
42907;DHT22;28552;51.146;6.576;2022-09-06T10:17:30;24.80;98.50
42907;DHT22;28552;51.146;6.576;2022-09-06T10:20:38;24.80;98.20
42907;DHT22;28552;51.146;6.576;2022-09-06T10:27:13;24.90;97.60
42907;DHT22;28552;51.146;6.576;2022-09-06T10:30:18;25.00;97.40
42907;DHT22;28552;51.146;6.576;2022-09-06T10:33:26;25.10;97.10
42907;DHT22;28552;51.146;6.576;2022-09-06T10:36:38;25.20;96.60
42907;DHT22;28552;51.146;6.576;2022-09-06T10:39:53;25.30;96.30
42907;DHT22;28552;51.146;6.576;2022-09-06T10:42:56;25.40;96.00
42907;DHT22;28552;51.146;6.576;2022-09-06T10:46:02;25.50;95.60
42907;DHT22;28552;51.146;6.576;2022-09-06T10:49:10;25.60;95.20
42907;DHT22;28552;51.146;6.576;2022-09-06T10:52:16;25.60;95.10
42907;DHT22;28552;51.146;6.576;2022-09-06T10:55:20;25.70;94.60
42907;DHT22;28552;51.146;6.576;2022-09-06T10:58:27;25.70;94.30
42907;DHT22;28552;51.146;6.576;2022-09-06T11:01:40;25.80;93.80
42907;DHT22;28552;51.146;6.576;2022-09-06T11:04:43;25.80;93.40
42907;DHT22;28552;51.146;6.576;2022-09-06T11:07:51;25.90;93.20
42907;DHT22;28552;51.146;6.576;2022-09-06T11:10:54;26.00;92.80
42907;DHT22;28552;51.146;6.576;2022-09-06T11:13:54;26.10;92.50
42907;DHT22;28552;51.146;6.576;2022-09-06T11:20:28;26.20;92.10
42907;DHT22;28552;51.146;6.576;2022-09-06T11:27:04;26.30;91.70
42907;DHT22;28552;51.146;6.576;2022-09-06T11:30:15;26.40;91.70
42907;DHT22;28552;51.146;6.576;2022-09-06T11:33:26;26.50;91.80
42907;DHT22;28552;51.146;6.576;2022-09-06T11:36:34;26.70;91.50
42907;DHT22;28552;51.146;6.576;2022-09-06T11:39:38;26.80;91.20
42907;DHT22;28552;51.146;6.576;2022-09-06T11:46:00;27.00;90.50
42907;DHT22;28552;51.146;6.576;2022-09-06T11:49:06;27.10;90.30
42907;DHT22;28552;51.146;6.576;2022-09-06T11:56:08;27.20;90.00
42907;DHT22;28552;51.146;6.576;2022-09-06T12:09:26;27.50;87.80
42907;DHT22;28552;51.146;6.576;2022-09-06T12:12:44;27.60;86.70
42907;DHT22;28552;51.146;6.576;2022-09-06T12:15:52;27.70;85.80
42907;DHT22;28552;51.146;6.576;2022-09-06T12:18:54;27.70;84.70
42907;DHT22;28552;51.146;6.576;2022-09-06T12:21:55;27.70;84.50
42907;DHT22;28552;51.146;6.576;2022-09-06T12:28:23;27.60;84.30
42907;DHT22;28552;51.146;6.576;2022-09-06T12:31:29;27.70;84.90
42907;DHT22;28552;51.146;6.576;2022-09-06T12:34:33;27.90;85.20
42907;DHT22;28552;51.146;6.576;2022-09-06T12:37:37;28.10;83.70
42907;DHT22;28552;51.146;6.576;2022-09-06T12:40:49;28.20;83.20
42907;DHT22;28552;51.146;6.576;2022-09-06T12:43:52;28.20;80.80
42907;DHT22;28552;51.146;6.576;2022-09-06T12:47:02;28.30;77.00
42907;DHT22;28552;51.146;6.576;2022-09-06T12:50:12;28.40;75.50
42907;DHT22;28552;51.146;6.576;2022-09-06T12:53:19;28.50;74.40
42907;DHT22;28552;51.146;6.576;2022-09-06T12:56:25;28.60;73.50
42907;DHT22;28552;51.146;6.576;2022-09-06T12:59:26;28.70;72.10
42907;DHT22;28552;51.146;6.576;2022-09-06T13:02:37;28.80;71.00
42907;DHT22;28552;51.146;6.576;2022-09-06T13:05:40;28.90;69.50
42907;DHT22;28552;51.146;6.576;2022-09-06T13:11:49;29.10;65.80
42907;DHT22;28552;51.146;6.576;2022-09-06T13:14:53;29.10;63.30
42907;DHT22;28552;51.146;6.576;2022-09-06T13:18:18;29.20;61.40
42907;DHT22;28552;51.146;6.576;2022-09-06T13:21:29;29.30;58.80
42907;DHT22;28552;51.146;6.576;2022-09-06T13:24:40;29.30;57.30
42907;DHT22;28552;51.146;6.576;2022-09-06T13:27:43;29.30;56.40
42907;DHT22;28552;51.146;6.576;2022-09-06T13:30:45;29.20;56.20
42907;DHT22;28552;51.146;6.576;2022-09-06T13:34:01;29.20;56.40
42907;DHT22;28552;51.146;6.576;2022-09-06T13:37:07;29.30;55.70
42907;DHT22;28552;51.146;6.576;2022-09-06T13:43:42;29.30;55.40
42907;DHT22;28552;51.146;6.576;2022-09-06T13:46:44;29.40;55.50
42907;DHT22;28552;51.146;6.576;2022-09-06T13:49:44;29.30;55.00
42907;DHT22;28552;51.146;6.576;2022-09-06T13:52:46;29.30;55.10
42907;DHT22;28552;51.146;6.576;2022-09-06T13:55:46;29.30;55.40
42907;DHT22;28552;51.146;6.576;2022-09-06T13:58:47;29.30;55.50
42907;DHT22;28552;51.146;6.576;2022-09-06T14:01:57;29.30;55.50
42907;DHT22;28552;51.146;6.576;2022-09-06T14:05:00;29.30;55.00
42907;DHT22;28552;51.146;6.576;2022-09-06T14:08:00;29.30;54.50
42907;DHT22;28552;51.146;6.576;2022-09-06T14:11:01;29.30;54.20
42907;DHT22;28552;51.146;6.576;2022-09-06T14:14:03;29.40;54.10
42907;DHT22;28552;51.146;6.576;2022-09-06T14:17:04;29.40;54.10
42907;DHT22;28552;51.146;6.576;2022-09-06T14:20:05;29.40;53.90
42907;DHT22;28552;51.146;6.576;2022-09-06T14:23:06;29.50;53.30
42907;DHT22;28552;51.146;6.576;2022-09-06T14:26:07;29.40;53.00
42907;DHT22;28552;51.146;6.576;2022-09-06T14:29:08;29.30;52.60
42907;DHT22;28552;51.146;6.576;2022-09-06T14:32:09;29.40;52.50
42907;DHT22;28552;51.146;6.576;2022-09-06T14:35:09;29.40;52.30
42907;DHT22;28552;51.146;6.576;2022-09-06T14:38:10;29.50;52.30
42907;DHT22;28552;51.146;6.576;2022-09-06T14:41:12;29.60;52.20
42907;DHT22;28552;51.146;6.576;2022-09-06T14:44:13;29.60;51.70
42907;DHT22;28552;51.146;6.576;2022-09-06T14:47:14;29.70;51.50
42907;DHT22;28552;51.146;6.576;2022-09-06T14:50:15;29.60;51.50
42907;DHT22;28552;51.146;6.576;2022-09-06T14:53:16;29.60;51.60
42907;DHT22;28552;51.146;6.576;2022-09-06T14:56:17;29.60;51.30
42907;DHT22;28552;51.146;6.576;2022-09-06T14:59:18;29.60;50.50
42907;DHT22;28552;51.146;6.576;2022-09-06T15:02:19;29.60;50.00
42907;DHT22;28552;51.146;6.576;2022-09-06T15:05:20;29.70;49.80
42907;DHT22;28552;51.146;6.576;2022-09-06T15:08:21;29.60;49.50
42907;DHT22;28552;51.146;6.576;2022-09-06T15:11:38;29.60;49.60
42907;DHT22;28552;51.146;6.576;2022-09-06T15:14:39;29.60;49.70
42907;DHT22;28552;51.146;6.576;2022-09-06T15:17:40;29.60;49.50
42907;DHT22;28552;51.146;6.576;2022-09-06T15:20:41;29.60;49.10
42907;DHT22;28552;51.146;6.576;2022-09-06T15:23:43;29.50;49.00
42907;DHT22;28552;51.146;6.576;2022-09-06T15:26:44;29.50;48.80
42907;DHT22;28552;51.146;6.576;2022-09-06T15:29:45;29.50;48.60
42907;DHT22;28552;51.146;6.576;2022-09-06T15:32:45;29.50;48.10
42907;DHT22;28552;51.146;6.576;2022-09-06T15:35:52;29.50;48.00
42907;DHT22;28552;51.146;6.576;2022-09-06T15:38:54;29.60;47.90
42907;DHT22;28552;51.146;6.576;2022-09-06T15:41:57;29.60;47.50
42907;DHT22;28552;51.146;6.576;2022-09-06T15:44:57;29.60;47.40
42907;DHT22;28552;51.146;6.576;2022-09-06T15:47:59;29.60;47.00
42907;DHT22;28552;51.146;6.576;2022-09-06T15:51:01;29.50;46.90
42907;DHT22;28552;51.146;6.576;2022-09-06T15:54:02;29.50;47.10
42907;DHT22;28552;51.146;6.576;2022-09-06T15:57:03;29.50;46.90
42907;DHT22;28552;51.146;6.576;2022-09-06T16:00:04;29.50;47.00
42907;DHT22;28552;51.146;6.576;2022-09-06T16:03:05;29.50;47.20
42907;DHT22;28552;51.146;6.576;2022-09-06T16:06:09;29.50;47.10
42907;DHT22;28552;51.146;6.576;2022-09-06T16:09:12;29.50;47.00
42907;DHT22;28552;51.146;6.576;2022-09-06T16:12:14;29.50;46.60
42907;DHT22;28552;51.146;6.576;2022-09-06T16:15:14;29.50;46.60
42907;DHT22;28552;51.146;6.576;2022-09-06T16:18:15;29.40;46.40
42907;DHT22;28552;51.146;6.576;2022-09-06T16:21:19;29.50;46.40
42907;DHT22;28552;51.146;6.576;2022-09-06T16:24:20;29.40;46.40
42907;DHT22;28552;51.146;6.576;2022-09-06T16:27:22;29.40;46.50
42907;DHT22;28552;51.146;6.576;2022-09-06T16:30:22;29.50;46.70
42907;DHT22;28552;51.146;6.576;2022-09-06T16:33:23;29.50;46.70
42907;DHT22;28552;51.146;6.576;2022-09-06T16:36:25;29.50;46.80
42907;DHT22;28552;51.146;6.576;2022-09-06T16:39:26;29.50;46.70
42907;DHT22;28552;51.146;6.576;2022-09-06T16:42:27;29.50;47.00
42907;DHT22;28552;51.146;6.576;2022-09-06T16:45:27;29.50;47.00
42907;DHT22;28552;51.146;6.576;2022-09-06T16:48:29;29.50;47.10
42907;DHT22;28552;51.146;6.576;2022-09-06T16:51:30;29.50;47.30
42907;DHT22;28552;51.146;6.576;2022-09-06T16:54:31;29.40;47.30
42907;DHT22;28552;51.146;6.576;2022-09-06T16:57:31;29.30;47.50
42907;DHT22;28552;51.146;6.576;2022-09-06T17:00:33;29.20;47.70
42907;DHT22;28552;51.146;6.576;2022-09-06T17:03:35;29.20;48.00
42907;DHT22;28552;51.146;6.576;2022-09-06T17:06:37;29.10;48.40
42907;DHT22;28552;51.146;6.576;2022-09-06T17:09:43;29.10;48.40
42907;DHT22;28552;51.146;6.576;2022-09-06T17:12:44;29.10;48.70
42907;DHT22;28552;51.146;6.576;2022-09-06T17:15:52;29.10;48.90
42907;DHT22;28552;51.146;6.576;2022-09-06T17:19:08;29.10;48.80
42907;DHT22;28552;51.146;6.576;2022-09-06T17:22:10;29.10;48.80
42907;DHT22;28552;51.146;6.576;2022-09-06T17:25:11;29.10;49.50
42907;DHT22;28552;51.146;6.576;2022-09-06T17:28:13;29.00;49.90
42907;DHT22;28552;51.146;6.576;2022-09-06T17:31:14;28.90;50.40
42907;DHT22;28552;51.146;6.576;2022-09-06T17:34:14;28.70;50.80
42907;DHT22;28552;51.146;6.576;2022-09-06T17:37:16;28.50;51.20
42907;DHT22;28552;51.146;6.576;2022-09-06T17:40:16;28.30;51.90
42907;DHT22;28552;51.146;6.576;2022-09-06T17:43:17;28.00;52.80
42907;DHT22;28552;51.146;6.576;2022-09-06T17:46:17;27.70;54.20
42907;DHT22;28552;51.146;6.576;2022-09-06T17:49:18;27.30;55.10
42907;DHT22;28552;51.146;6.576;2022-09-06T17:52:19;27.10;55.90
42907;DHT22;28552;51.146;6.576;2022-09-06T17:55:19;27.00;56.40
42907;DHT22;28552;51.146;6.576;2022-09-06T17:58:20;26.80;57.10
42907;DHT22;28552;51.146;6.576;2022-09-06T18:01:22;26.70;57.20
42907;DHT22;28552;51.146;6.576;2022-09-06T18:04:22;26.60;57.40
42907;DHT22;28552;51.146;6.576;2022-09-06T18:07:23;26.60;57.50
42907;DHT22;28552;51.146;6.576;2022-09-06T18:10:24;26.40;57.50
42907;DHT22;28552;51.146;6.576;2022-09-06T18:13:24;26.20;57.80
42907;DHT22;28552;51.146;6.576;2022-09-06T18:16:26;26.00;58.30
42907;DHT22;28552;51.146;6.576;2022-09-06T18:19:27;25.70;58.80
42907;DHT22;28552;51.146;6.576;2022-09-06T18:22:28;25.60;59.40
42907;DHT22;28552;51.146;6.576;2022-09-06T18:25:29;25.60;60.30
42907;DHT22;28552;51.146;6.576;2022-09-06T18:28:32;25.50;61.10
42907;DHT22;28552;51.146;6.576;2022-09-06T18:31:33;25.50;62.00
42907;DHT22;28552;51.146;6.576;2022-09-06T18:34:34;25.50;62.90
42907;DHT22;28552;51.146;6.576;2022-09-06T18:37:35;25.30;63.40
42907;DHT22;28552;51.146;6.576;2022-09-06T18:40:36;25.20;63.70
42907;DHT22;28552;51.146;6.576;2022-09-06T18:43:39;25.00;63.60
42907;DHT22;28552;51.146;6.576;2022-09-06T18:46:39;24.80;64.20
42907;DHT22;28552;51.146;6.576;2022-09-06T18:49:40;24.60;65.50
42907;DHT22;28552;51.146;6.576;2022-09-06T18:52:41;24.50;65.00
42907;DHT22;28552;51.146;6.576;2022-09-06T18:55:42;24.50;65.60
42907;DHT22;28552;51.146;6.576;2022-09-06T18:58:42;24.40;66.70
42907;DHT22;28552;51.146;6.576;2022-09-06T19:01:43;24.30;67.20
42907;DHT22;28552;51.146;6.576;2022-09-06T19:04:44;24.30;67.50
42907;DHT22;28552;51.146;6.576;2022-09-06T19:07:45;24.30;67.70
42907;DHT22;28552;51.146;6.576;2022-09-06T19:10:45;24.30;68.00
42907;DHT22;28552;51.146;6.576;2022-09-06T19:13:50;24.20;68.30
42907;DHT22;28552;51.146;6.576;2022-09-06T19:16:51;24.10;68.50
42907;DHT22;28552;51.146;6.576;2022-09-06T19:19:53;24.00;68.40
42907;DHT22;28552;51.146;6.576;2022-09-06T19:22:53;23.70;68.10
42907;DHT22;28552;51.146;6.576;2022-09-06T19:25:59;23.60;68.70
42907;DHT22;28552;51.146;6.576;2022-09-06T19:29:02;23.60;69.10
42907;DHT22;28552;51.146;6.576;2022-09-06T19:32:03;23.50;69.00
42907;DHT22;28552;51.146;6.576;2022-09-06T19:35:05;23.60;68.70
42907;DHT22;28552;51.146;6.576;2022-09-06T19:38:06;23.60;68.40
42907;DHT22;28552;51.146;6.576;2022-09-06T19:41:12;23.60;69.10
42907;DHT22;28552;51.146;6.576;2022-09-06T19:44:14;23.50;69.20
42907;DHT22;28552;51.146;6.576;2022-09-06T19:47:15;23.40;69.70
42907;DHT22;28552;51.146;6.576;2022-09-06T19:50:17;23.20;70.40
42907;DHT22;28552;51.146;6.576;2022-09-06T19:53:17;23.20;70.80
42907;DHT22;28552;51.146;6.576;2022-09-06T19:56:21;23.20;71.10
42907;DHT22;28552;51.146;6.576;2022-09-06T19:59:21;23.10;71.20
42907;DHT22;28552;51.146;6.576;2022-09-06T20:02:22;23.10;71.20
42907;DHT22;28552;51.146;6.576;2022-09-06T20:05:23;23.10;71.60
42907;DHT22;28552;51.146;6.576;2022-09-06T20:08:24;22.90;71.60
42907;DHT22;28552;51.146;6.576;2022-09-06T20:11:28;22.80;72.00
42907;DHT22;28552;51.146;6.576;2022-09-06T20:14:29;22.60;72.10
42907;DHT22;28552;51.146;6.576;2022-09-06T20:17:29;22.50;73.30
42907;DHT22;28552;51.146;6.576;2022-09-06T20:20:31;22.30;72.50
42907;DHT22;28552;51.146;6.576;2022-09-06T20:23:33;22.40;71.60